createdAt,value
2018-06-30T00:02:15.516Z,51.47
2018-06-30T00:04:41.523Z,51.88
2018-06-30T00:07:07.515Z,51.45
2018-06-30T00:09:33.500Z,51.34
2018-06-30T00:11:59.473Z,52.51
2018-06-30T00:14:25.448Z,52.79
2018-06-30T00:16:51.407Z,52.92
2018-06-30T00:19:17.399Z,52.61
2018-06-30T00:21:43.350Z,52.21
2018-06-30T00:24:09.323Z,52.31
2018-06-30T00:26:35.284Z,52.13
2018-06-30T00:29:01.236Z,52.50
2018-06-30T00:31:27.175Z,51.82
2018-06-30T00:33:53.199Z,51.75
2018-06-30T00:36:19.158Z,52.12
2018-06-30T00:38:45.122Z,52.42
2018-06-30T00:41:11.104Z,52.74
2018-06-30T00:43:37.060Z,52.47
2018-06-30T00:46:03.015Z,52.45
2018-06-30T00:48:29.022Z,52.41
2018-06-30T00:50:54.947Z,52.07
2018-06-30T00:53:20.895Z,52.56
2018-06-30T00:55:46.860Z,52.20
2018-06-30T00:58:12.820Z,52.22
2018-06-30T01:00:38.824Z,52.53
2018-06-30T01:03:04.779Z,52.51
2018-06-30T01:05:31.001Z,52.24
2018-06-30T01:07:56.964Z,52.90
2018-06-30T01:10:22.916Z,52.34
2018-06-30T01:12:48.896Z,53.08
2018-06-30T01:15:14.858Z,51.93
2018-06-30T01:17:40.797Z,52.76
2018-06-30T01:20:06.781Z,52.85
2018-06-30T01:22:32.748Z,52.82
2018-06-30T01:24:58.720Z,53.22
2018-06-30T01:27:24.657Z,52.61
2018-06-30T01:29:50.617Z,52.93
2018-06-30T01:32:16.587Z,53.42
2018-06-30T01:34:42.551Z,53.05
2018-06-30T01:37:08.526Z,53.43
2018-06-30T01:39:34.511Z,52.92
2018-06-30T01:42:00.513Z,53.29
2018-06-30T01:44:26.450Z,53.16
2018-06-30T01:46:52.419Z,53.41
2018-06-30T01:49:18.373Z,53.38
2018-06-30T01:51:44.320Z,52.97
2018-06-30T01:54:10.304Z,52.23
2018-06-30T01:56:36.241Z,51.40
2018-06-30T01:59:02.199Z,51.20
2018-06-30T02:01:28.152Z,49.34
2018-06-30T02:03:54.102Z,48.73
2018-06-30T02:06:20.034Z,47.98
2018-06-30T02:08:45.990Z,48.54
2018-06-30T02:11:11.961Z,48.33
2018-06-30T02:13:37.959Z,47.98
2018-06-30T02:16:03.932Z,48.41
2018-06-30T02:18:29.886Z,47.78
2018-06-30T02:20:55.865Z,47.51
2018-06-30T02:23:21.807Z,48.03
2018-06-30T02:25:47.748Z,47.83
2018-06-30T02:28:13.740Z,48.00
2018-06-30T02:30:39.711Z,47.68
2018-06-30T02:33:05.688Z,47.40
2018-06-30T02:35:31.656Z,47.95
2018-06-30T02:37:57.617Z,46.91
2018-06-30T02:40:23.619Z,47.04
2018-06-30T02:42:49.805Z,47.17
2018-06-30T02:45:15.787Z,47.31
2018-06-30T02:47:41.740Z,46.30
2018-06-30T02:50:07.696Z,47.06
2018-06-30T02:52:33.674Z,47.15
2018-06-30T02:54:59.658Z,47.66
2018-06-30T02:57:25.623Z,47.49
2018-06-30T02:59:51.559Z,47.73
2018-06-30T03:02:17.508Z,48.71
2018-06-30T03:04:43.492Z,48.41
2018-06-30T03:07:09.462Z,48.07
2018-06-30T03:09:35.417Z,48.07
2018-06-30T03:12:01.409Z,47.97
2018-06-30T03:14:27.362Z,48.06
2018-06-30T03:16:53.336Z,47.24
2018-06-30T03:19:19.286Z,47.39
2018-06-30T03:21:45.243Z,48.77
2018-06-30T03:24:11.219Z,48.22
2018-06-30T03:26:38.595Z,48.15
2018-06-30T03:29:04.908Z,48.79
2018-06-30T03:31:30.904Z,49.74
2018-06-30T03:33:56.812Z,48.73
2018-06-30T03:36:22.774Z,49.36
2018-06-30T03:38:48.758Z,50.00
2018-06-30T03:41:14.701Z,49.98
2018-06-30T03:43:40.645Z,49.32
2018-06-30T03:46:06.588Z,50.35
2018-06-30T03:48:32.550Z,49.79
2018-06-30T03:50:58.524Z,49.09
2018-06-30T03:53:24.465Z,49.00
2018-06-30T03:55:50.481Z,49.60
2018-06-30T03:58:16.445Z,48.42
2018-06-30T04:00:42.424Z,48.02
2018-06-30T04:03:08.372Z,48.05
2018-06-30T04:05:34.318Z,47.37
2018-06-30T04:08:00.301Z,48.35
2018-06-30T04:10:26.255Z,48.08
2018-06-30T04:12:52.208Z,48.47
2018-06-30T04:15:18.152Z,47.52
2018-06-30T04:17:47.708Z,47.45
2018-06-30T04:20:13.856Z,48.15
2018-06-30T04:22:39.804Z,46.65
2018-06-30T04:25:05.768Z,47.32
2018-06-30T04:27:31.733Z,47.54
2018-06-30T04:29:57.695Z,46.14
2018-06-30T04:32:23.679Z,46.41
2018-06-30T04:34:49.642Z,46.32
2018-06-30T04:37:15.600Z,45.99
2018-06-30T04:39:41.543Z,46.03
2018-06-30T04:42:07.521Z,45.68
2018-06-30T04:44:33.460Z,45.22
2018-06-30T04:46:59.407Z,44.15
2018-06-30T04:49:25.370Z,44.12
2018-06-30T04:51:51.314Z,43.13
2018-06-30T04:54:17.276Z,42.94
2018-06-30T04:56:43.248Z,42.98
2018-06-30T04:59:09.248Z,42.32
2018-06-30T05:01:35.242Z,41.04
2018-06-30T05:04:01.221Z,41.50
2018-06-30T05:06:27.168Z,41.30
2018-06-30T05:08:53.359Z,41.47
2018-06-30T05:11:19.363Z,41.26
2018-06-30T05:13:45.365Z,40.08
2018-06-30T05:16:11.310Z,39.47
2018-06-30T05:18:37.252Z,39.86
2018-06-30T05:21:03.210Z,39.61
2018-06-30T05:23:29.173Z,40.51
2018-06-30T05:25:55.166Z,39.31
2018-06-30T05:28:21.129Z,40.12
2018-06-30T05:30:47.132Z,39.02
2018-06-30T05:33:13.131Z,38.03
2018-06-30T05:35:39.048Z,38.59
2018-06-30T05:38:04.993Z,38.29
2018-06-30T05:40:30.952Z,37.75
2018-06-30T05:42:56.916Z,37.36
2018-06-30T05:45:22.894Z,37.03
2018-06-30T05:47:48.834Z,37.09
2018-06-30T05:50:14.788Z,36.61
2018-06-30T05:52:40.731Z,36.88
2018-06-30T05:55:06.687Z,35.81
2018-06-30T05:57:32.637Z,36.46
2018-06-30T05:59:58.596Z,36.25
2018-06-30T06:02:24.618Z,36.08
2018-06-30T06:04:50.567Z,35.86
2018-06-30T06:07:16.521Z,35.20
2018-06-30T06:09:42.525Z,34.09
2018-06-30T06:12:08.511Z,35.53
2018-06-30T06:14:34.510Z,35.14
2018-06-30T06:17:00.484Z,34.81
2018-06-30T06:19:26.430Z,33.45
2018-06-30T06:21:52.402Z,34.56
2018-06-30T06:24:18.392Z,34.91
2018-06-30T06:26:44.457Z,35.99
2018-06-30T06:29:10.443Z,33.53
2018-06-30T06:31:36.398Z,34.08
2018-06-30T06:34:02.375Z,32.63
2018-06-30T06:36:28.305Z,32.67
2018-06-30T06:38:54.337Z,33.64
2018-06-30T06:41:20.308Z,31.97
2018-06-30T06:43:46.287Z,32.21
2018-06-30T06:46:12.262Z,32.26
2018-06-30T06:48:38.323Z,32.22
2018-06-30T06:51:04.302Z,31.01
2018-06-30T06:53:30.293Z,28.41
2018-06-30T06:55:56.289Z,28.61
2018-06-30T06:58:22.357Z,28.41
2018-06-30T07:00:48.304Z,28.40
2018-06-30T07:03:14.261Z,29.45
2018-06-30T07:05:40.280Z,29.49
2018-06-30T07:08:06.271Z,29.04
2018-06-30T07:10:32.339Z,29.21
2018-06-30T07:12:58.358Z,30.09
2018-06-30T07:20:27.193Z,28.55
2018-06-30T07:22:53.153Z,28.33
2018-06-30T07:25:19.269Z,26.79
2018-06-30T07:27:45.269Z,27.76
2018-06-30T07:30:11.266Z,28.70
2018-06-30T07:32:37.240Z,27.78
2018-06-30T07:35:03.230Z,26.98
2018-06-30T07:37:29.247Z,26.60
2018-06-30T07:39:55.228Z,26.11
2018-06-30T07:42:21.172Z,27.52
2018-06-30T07:44:47.148Z,27.97
2018-06-30T07:47:13.786Z,31.61
2018-06-30T07:49:39.769Z,25.93
2018-06-30T07:52:05.753Z,26.52
2018-06-30T07:54:31.717Z,29.36
2018-06-30T07:56:57.685Z,26.33
2018-06-30T07:59:23.656Z,25.94
2018-06-30T08:01:49.621Z,27.06
2018-06-30T08:04:16.455Z,28.59
2018-06-30T08:06:42.457Z,28.40
2018-06-30T08:09:08.424Z,27.85
2018-06-30T08:11:34.713Z,27.56
2018-06-30T08:14:00.654Z,27.63
2018-06-30T08:16:26.619Z,27.38
2018-06-30T08:18:52.596Z,27.92
2018-06-30T08:21:18.562Z,31.16
2018-06-30T08:23:44.502Z,29.12
2018-06-30T08:26:10.475Z,30.35
2018-06-30T08:28:36.432Z,30.00
2018-06-30T08:31:02.413Z,29.38
2018-06-30T08:33:28.367Z,27.42
2018-06-30T08:35:54.327Z,26.62
2018-06-30T08:38:20.390Z,29.93
2018-06-30T08:40:46.345Z,28.54
2018-06-30T08:43:13.338Z,28.30
2018-06-30T08:45:39.294Z,32.05
2018-06-30T08:48:05.251Z,29.08
2018-06-30T08:50:31.217Z,27.70
2018-06-30T08:52:57.217Z,29.20
2018-06-30T08:55:23.171Z,28.72
2018-06-30T08:57:49.126Z,29.75
2018-06-30T09:00:15.078Z,28.62
2018-06-30T09:02:41.044Z,29.48
2018-06-30T09:05:06.978Z,29.24
2018-06-30T09:07:32.957Z,29.35
2018-06-30T09:09:59.002Z,29.98
2018-06-30T09:12:24.948Z,29.02
2018-06-30T09:14:50.884Z,27.94
2018-06-30T09:17:16.848Z,30.03
2018-06-30T09:19:43.890Z,28.52
2018-06-30T09:22:09.913Z,28.66
2018-06-30T09:24:35.854Z,28.20
2018-06-30T09:27:01.826Z,28.21
2018-06-30T09:29:28.824Z,28.90
2018-06-30T09:31:54.831Z,26.95
2018-06-30T09:34:20.798Z,27.40
2018-06-30T09:36:49.405Z,27.82
2018-06-30T09:39:15.483Z,28.93
2018-06-30T09:41:42.959Z,29.84
2018-06-30T09:44:08.906Z,29.56
2018-06-30T09:46:34.874Z,28.68
2018-06-30T09:49:00.854Z,29.08
2018-06-30T09:51:26.799Z,31.26
2018-06-30T09:53:52.773Z,29.80
2018-06-30T09:56:18.735Z,29.49
2018-06-30T09:58:44.713Z,30.51
2018-06-30T10:01:10.694Z,30.20
2018-06-30T10:03:36.698Z,30.29
2018-06-30T10:06:02.672Z,29.56
2018-06-30T10:08:28.661Z,29.53
2018-06-30T10:10:54.637Z,30.26
2018-06-30T10:13:20.600Z,31.34
2018-06-30T10:15:50.703Z,30.87
2018-06-30T10:18:16.895Z,30.08
2018-06-30T10:20:42.852Z,29.95
2018-06-30T10:25:43.832Z,31.10
2018-06-30T10:33:12.478Z,30.18
2018-06-30T10:35:38.416Z,30.21
2018-06-30T10:38:04.414Z,29.66
2018-06-30T10:40:30.402Z,28.43
2018-06-30T10:42:56.406Z,29.65
2018-06-30T10:45:22.399Z,29.10
2018-06-30T10:47:48.397Z,30.00
2018-06-30T10:50:14.424Z,29.09
2018-06-30T10:52:40.384Z,28.77
2018-06-30T10:55:06.339Z,30.07
2018-06-30T10:57:32.297Z,28.86
2018-06-30T10:59:58.254Z,29.98
2018-06-30T11:02:24.208Z,29.87
2018-06-30T11:04:50.157Z,29.85
2018-06-30T11:07:16.120Z,29.37
2018-06-30T11:09:42.143Z,30.41
2018-06-30T11:12:08.169Z,29.69
2018-06-30T11:14:34.104Z,29.84
2018-06-30T11:17:00.063Z,29.25
2018-06-30T11:19:26.063Z,29.18
2018-06-30T11:21:52.036Z,29.56
2018-06-30T11:24:17.983Z,29.40
2018-06-30T11:26:43.923Z,29.64
2018-06-30T11:29:09.913Z,29.95
2018-06-30T11:31:35.891Z,29.68
2018-06-30T11:34:01.857Z,28.75
2018-06-30T11:36:27.866Z,29.62
2018-06-30T11:38:53.893Z,29.29
2018-06-30T11:41:20.186Z,30.96
2018-06-30T11:43:46.137Z,28.27
2018-06-30T11:46:12.095Z,29.05
2018-06-30T11:48:38.072Z,28.96
2018-06-30T11:51:04.045Z,29.08
2018-06-30T11:53:30.064Z,28.21
2018-06-30T11:55:56.022Z,27.80
2018-06-30T11:58:21.985Z,27.09
2018-06-30T12:00:48.017Z,27.30
2018-06-30T12:03:14.003Z,28.69
2018-06-30T12:05:39.981Z,27.93
2018-06-30T12:08:05.971Z,26.91
2018-06-30T12:10:31.948Z,27.67
2018-06-30T12:12:57.930Z,28.60
2018-06-30T12:15:23.973Z,26.83
2018-06-30T12:17:50.100Z,27.46
2018-06-30T12:20:16.063Z,27.89
2018-06-30T12:22:42.096Z,26.36
2018-06-30T12:25:08.072Z,26.87
2018-06-30T12:27:34.086Z,26.97
2018-06-30T12:30:00.096Z,27.69
2018-06-30T12:32:26.185Z,27.59
2018-06-30T12:34:52.168Z,27.76
2018-06-30T12:37:18.173Z,27.94
2018-06-30T12:39:44.180Z,28.03
2018-06-30T12:42:10.140Z,27.17
2018-06-30T12:44:36.085Z,27.22
2018-06-30T12:47:02.059Z,27.35
2018-06-30T12:49:28.037Z,27.79
2018-06-30T12:51:54.055Z,26.50
2018-06-30T12:54:20.074Z,27.06
2018-06-30T12:56:46.084Z,27.75
2018-06-30T12:59:12.116Z,28.14
2018-06-30T13:01:38.158Z,28.37
2018-06-30T13:04:04.132Z,27.83
2018-06-30T13:06:30.155Z,28.14
2018-06-30T13:08:56.095Z,27.41
2018-06-30T13:11:22.089Z,27.01
2018-06-30T13:13:48.062Z,26.63
2018-06-30T13:16:14.015Z,26.82
2018-06-30T13:18:40.021Z,28.26
2018-06-30T13:21:08.451Z,27.45
2018-06-30T13:23:34.525Z,27.05
2018-06-30T13:26:00.494Z,28.02
2018-06-30T13:28:26.462Z,28.23
2018-06-30T13:30:52.436Z,28.61
2018-06-30T13:33:18.465Z,28.28
2018-06-30T13:35:44.568Z,28.28
2018-06-30T13:38:10.548Z,28.69
2018-06-30T13:40:36.547Z,28.78
2018-06-30T13:43:02.547Z,28.19
2018-06-30T13:45:28.513Z,28.76
2018-06-30T13:47:54.541Z,27.56
2018-06-30T13:50:20.545Z,27.89
2018-06-30T13:52:46.567Z,27.84
2018-06-30T13:55:12.475Z,28.08
2018-06-30T13:57:38.823Z,28.16
2018-06-30T14:00:04.829Z,28.67
2018-06-30T14:02:30.788Z,29.32
2018-06-30T14:04:56.777Z,28.84
2018-06-30T14:07:22.764Z,29.33
2018-06-30T14:09:48.707Z,29.21
2018-06-30T14:12:14.657Z,28.76
2018-06-30T14:14:40.631Z,29.44
2018-06-30T14:17:06.769Z,29.45
2018-06-30T14:19:32.721Z,28.18
2018-06-30T14:21:58.681Z,28.25
2018-06-30T14:24:24.656Z,29.06
2018-06-30T14:26:50.618Z,29.67
2018-06-30T14:29:16.562Z,28.97
2018-06-30T14:31:42.812Z,29.69
2018-06-30T14:34:08.793Z,28.32
2018-06-30T14:36:34.753Z,29.20
2018-06-30T14:39:00.694Z,29.38
2018-06-30T14:41:26.674Z,29.52
2018-06-30T14:43:52.741Z,29.75
2018-06-30T14:46:18.696Z,29.22
2018-06-30T14:48:44.670Z,28.87
2018-06-30T14:51:10.649Z,28.90
2018-06-30T14:53:36.600Z,29.06
2018-06-30T14:56:02.683Z,28.19
2018-06-30T14:58:28.649Z,28.51
2018-06-30T15:00:55.335Z,28.27
2018-06-30T15:03:21.299Z,28.43
2018-06-30T15:05:47.255Z,28.93
2018-06-30T15:08:13.208Z,28.15
2018-06-30T15:10:39.164Z,28.57
2018-06-30T15:13:05.155Z,28.46
2018-06-30T15:15:31.157Z,29.03
2018-06-30T15:17:57.141Z,27.45
2018-06-30T15:20:23.078Z,27.65
2018-06-30T15:22:49.060Z,28.37
2018-06-30T15:25:15.030Z,28.73
2018-06-30T15:27:41.050Z,28.92
2018-06-30T15:30:06.999Z,29.07
2018-06-30T15:32:32.973Z,29.01
2018-06-30T15:34:58.913Z,28.88
2018-06-30T15:37:24.894Z,29.94
2018-06-30T15:39:50.866Z,28.33
2018-06-30T15:42:16.844Z,28.59
2018-06-30T15:44:42.827Z,28.73
2018-06-30T15:47:08.838Z,29.09
2018-06-30T15:49:34.790Z,28.05
2018-06-30T15:52:00.783Z,28.69
2018-06-30T15:54:26.738Z,28.00
2018-06-30T15:56:52.776Z,27.95
2018-06-30T15:59:18.857Z,28.59
2018-06-30T16:01:44.735Z,29.39
2018-06-30T16:04:15.806Z,29.80
2018-06-30T16:06:41.781Z,30.38
2018-06-30T16:09:07.815Z,29.41
2018-06-30T16:11:33.855Z,29.98
2018-06-30T16:14:00.905Z,29.66
2018-06-30T16:16:26.923Z,31.58
2018-06-30T16:18:52.964Z,33.17
2018-06-30T16:21:18.917Z,34.24
2018-06-30T16:23:44.917Z,31.08
2018-06-30T16:26:10.880Z,31.56
2018-06-30T16:28:36.885Z,32.18
2018-06-30T16:31:02.834Z,28.82
2018-06-30T16:33:29.178Z,29.06
2018-06-30T16:35:55.165Z,29.51
2018-06-30T16:38:21.123Z,28.79
2018-06-30T16:40:47.108Z,30.65
2018-06-30T16:43:13.081Z,30.75
2018-06-30T16:45:39.072Z,30.63
2018-06-30T16:48:05.020Z,30.42
2018-06-30T16:50:30.955Z,30.59
2018-06-30T16:52:56.968Z,30.92
2018-06-30T16:55:22.974Z,30.34
2018-06-30T16:57:48.993Z,29.52
2018-06-30T17:00:14.944Z,30.03
2018-06-30T17:02:41.335Z,30.22
2018-06-30T17:05:07.280Z,29.97
2018-06-30T17:07:33.312Z,30.31
2018-06-30T17:09:59.258Z,30.81
2018-06-30T17:12:25.248Z,31.23
2018-06-30T17:14:51.337Z,30.23
2018-06-30T17:17:17.329Z,31.30
2018-06-30T17:19:43.307Z,30.34
2018-06-30T17:22:09.330Z,32.01
2018-06-30T17:24:35.287Z,31.07
2018-06-30T17:27:01.262Z,31.68
2018-06-30T17:29:29.270Z,31.76
2018-06-30T17:31:55.286Z,31.85
2018-06-30T17:34:21.262Z,30.95
2018-06-30T17:36:47.226Z,30.51
2018-06-30T17:39:13.215Z,30.92
2018-06-30T17:41:39.265Z,31.05
2018-06-30T17:44:05.242Z,31.69
2018-06-30T17:46:31.246Z,31.44
2018-06-30T17:48:57.246Z,31.03
2018-06-30T17:51:23.218Z,31.04
2018-06-30T17:53:50.857Z,31.40
2018-06-30T17:56:16.812Z,31.33
2018-06-30T17:58:42.800Z,31.13
2018-06-30T18:01:08.800Z,31.71
2018-06-30T18:03:34.759Z,30.28
2018-06-30T18:06:00.699Z,30.79
2018-06-30T18:08:26.697Z,31.00
2018-06-30T18:10:52.680Z,30.75
2018-06-30T18:13:18.626Z,31.35
2018-06-30T18:15:44.569Z,31.57
2018-06-30T18:18:10.511Z,31.53
2018-06-30T18:20:36.569Z,32.22
2018-06-30T18:23:02.533Z,31.37
2018-06-30T18:25:28.513Z,32.09
2018-06-30T18:27:54.477Z,31.73
2018-06-30T18:30:20.433Z,32.48
2018-06-30T18:32:46.476Z,32.44
2018-06-30T18:35:12.445Z,31.09
2018-06-30T18:37:38.472Z,31.31
2018-06-30T18:40:04.467Z,31.76
2018-06-30T18:42:30.464Z,31.09
2018-06-30T18:44:56.449Z,32.46
2018-06-30T18:47:22.455Z,32.09
2018-06-30T18:49:48.449Z,32.55
2018-06-30T18:52:14.418Z,31.87
2018-06-30T18:54:40.416Z,32.26
2018-06-30T18:57:06.419Z,32.18
2018-06-30T18:59:32.438Z,32.52
2018-06-30T19:01:58.416Z,32.29
2018-06-30T19:04:24.421Z,33.35
2018-06-30T19:06:50.457Z,32.68
2018-06-30T19:09:16.427Z,32.78
2018-06-30T19:11:42.487Z,33.40
2018-06-30T19:14:08.442Z,33.01
2018-06-30T19:16:34.432Z,33.56
2018-06-30T19:19:00.399Z,33.10
2018-06-30T19:21:26.502Z,32.24
2018-06-30T19:23:52.454Z,32.42
2018-06-30T19:26:18.448Z,32.77
2018-06-30T19:28:44.411Z,32.01
2018-06-30T19:31:10.389Z,32.18
2018-06-30T19:33:36.395Z,33.38
2018-06-30T19:36:02.621Z,32.83
2018-06-30T19:38:28.612Z,32.88
2018-06-30T19:40:54.600Z,32.22
2018-06-30T19:43:20.565Z,33.09
2018-06-30T19:45:46.545Z,32.98
2018-06-30T19:48:12.503Z,33.21
2018-06-30T19:50:39.578Z,32.13
2018-06-30T19:53:05.604Z,32.32
2018-06-30T19:55:31.634Z,30.11
2018-06-30T19:57:57.626Z,30.41
2018-06-30T20:00:23.588Z,30.22
2018-06-30T20:02:49.551Z,30.26
2018-06-30T20:05:15.551Z,30.73
2018-06-30T20:07:41.496Z,29.79
2018-06-30T20:10:07.492Z,30.22
2018-06-30T20:15:09.381Z,30.80
2018-06-30T20:17:35.407Z,30.48
2018-06-30T20:20:03.467Z,30.62
2018-06-30T20:22:29.438Z,30.10
2018-06-30T20:24:55.470Z,30.21
2018-06-30T20:27:21.465Z,30.96
2018-06-30T20:29:47.484Z,30.68
2018-06-30T20:32:13.493Z,30.56
2018-06-30T20:34:39.505Z,30.48
2018-06-30T20:37:05.477Z,30.50
2018-06-30T20:39:31.464Z,30.56
2018-06-30T20:41:57.470Z,31.27
2018-06-30T20:44:23.481Z,30.54
2018-06-30T20:46:49.483Z,30.97
2018-06-30T20:49:15.587Z,30.77
2018-06-30T20:54:15.041Z,31.51
2018-06-30T20:56:44.996Z,31.51
2018-06-30T20:59:12.034Z,31.49
2018-06-30T21:01:38.116Z,31.73
2018-06-30T21:04:04.094Z,31.74
2018-06-30T21:06:30.129Z,31.43
2018-06-30T21:08:56.160Z,32.08
2018-06-30T21:11:22.194Z,32.53
2018-06-30T21:13:48.217Z,32.41
2018-06-30T21:16:14.311Z,32.03
2018-06-30T21:18:40.319Z,32.38
2018-06-30T21:21:06.324Z,32.05
2018-06-30T21:23:32.313Z,31.54
2018-06-30T21:25:58.296Z,31.94
2018-06-30T21:28:24.286Z,32.10
2018-06-30T21:30:50.231Z,32.05
2018-06-30T21:33:16.509Z,32.27
2018-06-30T21:35:42.440Z,33.50
2018-06-30T21:38:08.406Z,32.49
2018-06-30T21:40:34.538Z,32.31
2018-06-30T21:43:00.529Z,32.81
2018-06-30T21:45:26.889Z,32.79
2018-06-30T21:47:52.850Z,32.43
2018-06-30T21:50:18.845Z,32.64
2018-06-30T21:52:44.786Z,32.66
2018-06-30T21:55:10.776Z,33.42
2018-06-30T21:57:36.792Z,33.51
2018-06-30T22:00:02.744Z,32.96
2018-06-30T22:02:28.722Z,33.19
2018-06-30T22:04:54.683Z,33.39
2018-06-30T22:07:20.652Z,33.70
2018-06-30T22:09:46.652Z,33.48
2018-06-30T22:12:12.646Z,34.00
2018-06-30T22:14:38.623Z,33.88
2018-06-30T22:17:04.605Z,33.98
2018-06-30T22:19:30.551Z,33.96
2018-06-30T22:21:56.533Z,34.91
2018-06-30T22:24:22.524Z,35.36
2018-06-30T22:26:48.492Z,36.13
2018-06-30T22:29:14.439Z,36.44
2018-06-30T22:31:40.417Z,36.17
2018-06-30T22:34:06.412Z,36.63
2018-06-30T22:36:32.406Z,37.15
2018-06-30T22:38:58.602Z,37.04
2018-06-30T22:41:24.581Z,36.73
2018-06-30T22:43:50.568Z,37.11
2018-06-30T22:46:16.513Z,37.76
2018-06-30T22:48:42.481Z,37.42
2018-06-30T22:51:08.443Z,37.89
2018-06-30T22:53:34.422Z,38.07
2018-06-30T22:56:00.387Z,37.19
2018-06-30T22:58:26.369Z,36.53
2018-06-30T23:00:52.339Z,37.09
2018-06-30T23:03:18.316Z,36.25
2018-06-30T23:05:44.284Z,36.13
2018-06-30T23:08:10.256Z,36.37
2018-06-30T23:10:36.255Z,35.92
2018-06-30T23:13:02.225Z,36.55
2018-06-30T23:15:28.161Z,35.83
2018-06-30T23:17:54.109Z,36.47
2018-06-30T23:20:20.128Z,36.98
2018-06-30T23:22:46.148Z,37.12
2018-06-30T23:25:12.153Z,36.37
2018-06-30T23:27:38.097Z,37.06
2018-06-30T23:30:04.063Z,36.44
2018-06-30T23:32:30.040Z,35.57
2018-06-30T23:34:56.006Z,36.42
2018-06-30T23:37:22.640Z,36.76
2018-06-30T23:39:48.597Z,36.49
2018-06-30T23:42:14.553Z,37.63
2018-06-30T23:44:40.535Z,36.94
2018-06-30T23:47:06.434Z,37.36
2018-06-30T23:49:32.387Z,38.28
2018-06-30T23:51:58.327Z,38.97
2018-06-30T23:54:24.300Z,40.04
2018-06-30T23:56:50.249Z,38.90
2018-06-30T23:59:16.217Z,39.27
